Weather reports worldwide

Advertisment
Edinburgh, United Kingdom (3160): temperature & dewpoint: 23.09.2020 01:00:00 - 29.09.2020 01:00:00 (BST)Edinburgh, United Kingdom (3160): wind speed: 23.09.2020 01:00:00 - 29.09.2020 01:00:00 (BST)Edinburgh, United Kingdom (3160): wind direction: 23.09.2020 01:00:00 - 29.09.2020 01:00:00 (BST)Edinburgh, United Kingdom (3160): visibility: 23.09.2020 01:00:00 - 29.09.2020 01:00:00 (BST)
Date & Time tt [°C] td [°C] ff [km/h] ff [kn] dd vv [km]
29.09.2020 01:00:00 8,0 7,0 16 9 WSW 10
29.09.2020 00:00:00 7,0 6,0 13 7 SW 10
28.09.2020 23:00:00 7,0 7,0 8 4 WSW 10
28.09.2020 22:00:00 6,0 5,0 11 6 WSW 10
28.09.2020 21:00:00 9,0 8,0 8 4 W 10
28.09.2020 20:00:00 9,0 8,0 13 7 SW 10
28.09.2020 19:00:00 13,0 10,0 13 7 WSW 10
28.09.2020 18:00:00 14,0 12,0 9 5 WSW 10
28.09.2020 17:00:00 14,0 13,0 9 5 W 10
28.09.2020 16:00:00 13,0 11,0 9 5 WNW 10
28.09.2020 15:00:00 15,0 12,0 16 9 WSW 10
28.09.2020 14:00:00 14,0 12,0 22 12 WSW 10
28.09.2020 13:00:00 14,0 12,0 4 2 - 10
28.09.2020 12:00:00 12,0 9,0 5 3 - 10
28.09.2020 11:00:00 11,0 8,0 5 3 - 10
28.09.2020 10:00:00 10,0 8,0 5 3 - 10
28.09.2020 09:00:00 8,0 7,0 2 1 - 10
28.09.2020 08:00:00 6,0 6,0 2 1 NW 10
28.09.2020 07:00:00 5,0 5,0 2 1 NNW 10
28.09.2020 06:00:00 4,0 3,0 2 1 - 10
28.09.2020 05:00:00 4,0 3,0 2 1 - 10
28.09.2020 04:00:00 4,0 3,0 0 0 N 10
28.09.2020 03:00:00 4,0 4,0 2 1 - 10
28.09.2020 02:00:00 4,0 3,0 2 1 WSW 10
28.09.2020 01:00:00 4,0 4,0 2 1 - 10
28.09.2020 00:00:00 2,0 2,0 2 1 WSW 10
27.09.2020 23:00:00 3,0 3,0 2 1 E 10
27.09.2020 22:00:00 4,0 4,0 4 2 WSW 10
27.09.2020 21:00:00 4,0 3,0 2 1 - 10
27.09.2020 20:00:00 5,0 4,0 2 1 W 10
27.09.2020 19:00:00 8,0 5,0 4 2 ENE 10
27.09.2020 18:00:00 10,0 5,0 8 4 NE 10
27.09.2020 17:00:00 12,0 5,0 9 5 NE 10
27.09.2020 16:00:00 11,0 5,0 11 6 NNE 10
27.09.2020 15:00:00 12,0 5,0 13 7 NE 10
27.09.2020 14:00:00 12,0 3,0 5 3 - 10
27.09.2020 13:00:00 12,0 4,0 5 3 - 10
27.09.2020 12:00:00 11,0 3,0 4 2 - 10
27.09.2020 11:00:00 9,0 4,0 2 1 - 10
27.09.2020 10:00:00 6,0 4,0 5 3 - 10
27.09.2020 09:00:00 2,0 1,0 4 2 WSW 10
27.09.2020 08:00:00 -2,0 -2,0 4 2 - 10
27.09.2020 07:00:00 -2,0 -2,0 4 2 W 10
27.09.2020 06:00:00 -1,0 -1,0 4 2 W 10
27.09.2020 05:00:00 -2,0 -3,0 0 0 N 10
27.09.2020 04:00:00 -1,0 -1,0 2 1 - 10
27.09.2020 03:00:00 0,0 0,0 4 2 W 10
27.09.2020 02:00:00 0,0 0,0 2 1 - 10
27.09.2020 01:00:00 0,0 0,0 4 2 - 10
27.09.2020 00:00:00 2,0 1,0 2 1 - 10
26.09.2020 23:00:00 2,0 1,0 4 2 - 10
26.09.2020 22:00:00 4,0 3,0 4 2 - 10
26.09.2020 21:00:00 5,0 3,0 4 2 - 10
26.09.2020 20:00:00 8,0 3,0 8 4 NE 10
26.09.2020 19:00:00 11,0 3,0 8 4 NNE 10
26.09.2020 18:00:00 13,0 3,0 9 5 NNE 10
26.09.2020 17:00:00 14,0 4,0 11 6 N 10
26.09.2020 16:00:00 14,0 4,0 13 7 N 10
26.09.2020 15:00:00 14,0 4,0 9 5 NE 10
26.09.2020 14:00:00 14,0 4,0 13 7 NNE 10
26.09.2020 13:00:00 12,0 4,0 9 5 N 10
26.09.2020 12:00:00 12,0 4,0 11 6 N 10
26.09.2020 11:00:00 11,0 4,0 9 5 - 10
26.09.2020 10:00:00 9,0 4,0 8 4 WNW 10
26.09.2020 09:00:00 5,0 4,0 9 5 WSW 10
26.09.2020 08:00:00 3,0 1,0 11 6 WSW 10
26.09.2020 07:00:00 2,0 -1,0 9 5 WSW 10
26.09.2020 06:00:00 4,0 1,0 13 7 WSW 10
26.09.2020 05:00:00 4,0 1,0 9 5 W 10
26.09.2020 04:00:00 3,0 0,0 11 6 WSW 10
26.09.2020 03:00:00 4,0 1,0 8 4 W 10
26.09.2020 02:00:00 5,0 0,0 5 3 - 10
26.09.2020 01:00:00 6,0 0,0 5 3 - 10
26.09.2020 00:00:00 7,0 0,0 5 3 - 10
25.09.2020 23:00:00 8,0 1,0 8 4 - 10
25.09.2020 22:00:00 7,0 2,0 5 3 - 10
25.09.2020 21:00:00 9,0 2,0 11 6 NW 10
25.09.2020 20:00:00 9,0 2,0 5 3 - 10
25.09.2020 19:00:00 10,0 3,0 9 5 NNW 10
25.09.2020 18:00:00 12,0 3,0 15 8 NNW 10
25.09.2020 17:00:00 12,0 4,0 9 5 N 10
25.09.2020 16:00:00 12,0 4,0 11 6 NW 10
25.09.2020 15:00:00 13,0 5,0 13 7 NNW 10
25.09.2020 14:00:00 12,0 6,0 13 7 NNW 10
25.09.2020 13:00:00 12,0 6,0 15 8 N 10
25.09.2020 12:00:00 12,0 5,0 13 7 NNW 10
25.09.2020 11:00:00 11,0 5,0 11 6 NW 10
25.09.2020 10:00:00 10,0 5,0 11 6 NW 10
25.09.2020 09:00:00 9,0 5,0 8 4 NW 10
25.09.2020 08:00:00 9,0 5,0 9 5 - 10
25.09.2020 07:00:00 8,0 5,0 8 4 NNW 10
25.09.2020 06:00:00 5,0 4,0 5 3 - 10
25.09.2020 05:00:00 5,0 4,0 11 6 WSW 10
25.09.2020 04:00:00 6,0 3,0 4 2 - 10
25.09.2020 03:00:00 6,0 4,0 4 2 - 10
25.09.2020 02:00:00 4,0 2,0 5 3 SW 10
25.09.2020 01:00:00 6,0 3,0 8 4 NNW 10
25.09.2020 00:00:00 6,0 3,0 8 4 NNW 10
24.09.2020 23:00:00 6,0 3,0 5 3 - 10
24.09.2020 22:00:00 8,0 3,0 9 5 NNE 10
24.09.2020 21:00:00 10,0 5,0 13 7 NNE 10
24.09.2020 20:00:00 10,0 5,0 18 10 ENE 10
24.09.2020 19:00:00 10,0 5,0 18 10 ENE 10
24.09.2020 18:00:00 11,0 6,0 21 11 ENE 10
24.09.2020 17:00:00 11,0 6,0 16 9 ENE 10
24.09.2020 16:00:00 11,0 6,0 16 9 E 10
24.09.2020 15:00:00 11,0 5,0 18 10 E 10
24.09.2020 14:00:00 11,0 6,0 18 10 E 10
24.09.2020 13:00:00 11,0 6,0 18 10 ENE 10
24.09.2020 12:00:00 11,0 7,0 21 11 E 10
24.09.2020 11:00:00 10,0 7,0 13 7 ENE 10
24.09.2020 10:00:00 8,0 8,0 0 0 N 10
24.09.2020 09:00:00 4,0 4,0 5 3 - 10
24.09.2020 08:00:00 1,0 1,0 2 1 W 10
24.09.2020 07:00:00 1,0 1,0 2 1 - 10
24.09.2020 06:00:00 1,0 1,0 4 2 - 6
24.09.2020 05:00:00 2,0 2,0 5 3 W 10
24.09.2020 04:00:00 2,0 1,0 2 1 - 10
24.09.2020 03:00:00 2,0 2,0 2 1 WSW 10
24.09.2020 02:00:00 4,0 3,0 4 2 NNE 10
24.09.2020 01:00:00 4,0 3,0 5 3 WSW 10
24.09.2020 00:00:00 6,0 4,0 8 4 SW 10
23.09.2020 23:00:00 7,0 6,0 8 4 WSW 10
23.09.2020 22:00:00 7,0 6,0 5 3 W 10
23.09.2020 21:00:00 7,0 5,0 4 2 NW 10
23.09.2020 20:00:00 8,0 6,0 2 1 N 10
23.09.2020 19:00:00 9,0 5,0 5 3 ENE 10
23.09.2020 18:00:00 11,0 6,0 8 4 E 10
23.09.2020 17:00:00 11,0 6,0 9 5 ENE 10
23.09.2020 16:00:00 11,0 5,0 13 7 E 10
23.09.2020 15:00:00 12,0 5,0 11 6 ENE 10
23.09.2020 14:00:00 12,0 5,0 13 7 ENE 10
23.09.2020 13:00:00 12,0 5,0 13 7 ENE 10
23.09.2020 12:00:00 11,0 6,0 8 4 NE 10
23.09.2020 11:00:00 11,0 5,0 8 4 ENE 10
23.09.2020 10:00:00 9,0 7,0 5 3 - 10
23.09.2020 09:00:00 6,0 6,0 8 4 W 10
23.09.2020 08:00:00 4,0 4,0 2 1 - 10
23.09.2020 07:00:00 3,0 3,0 8 4 SW 10
23.09.2020 06:00:00 4,0 3,0 0 0 N 10
23.09.2020 05:00:00 6,0 5,0 4 2 - 10
23.09.2020 04:00:00 6,0 5,0 5 3 WSW 10
23.09.2020 03:00:00 8,0 6,0 8 4 W 10
23.09.2020 02:00:00 10,0 7,0 13 7 WSW 10
23.09.2020 01:00:00 11,0 9,0 15 8 WSW 10

tt = temperature
td = dewpoint
ff = wind speed
dd = wind direction
vv = visibility

Next stations